Time,TemperatureF,DewpointF,PressureIn,WindDirection,WindDirectionDegrees,WindSpeedMPH,WindSpeedGustMPH,Humidity,HourlyPrecipIn,Conditions,Clouds,dailyrainin,SoftwareType,DateUTC
2013-02-19 00:04:00,56.8,56.2,29.71,WNW,292,9.4,-999.0,98,-99.99,,,0.00,Acu-Link.com,2013-02-19 06:04:00,
2013-02-19 00:19:00,56.1,55.5,29.71,NW,315,3.2,-999.0,98,-99.99,,,0.14,Acu-Link.com,2013-02-19 06:19:00,
2013-02-19 00:34:00,55.8,55.2,29.71,SSE,157,1.1,-999.0,98,-99.99,,,0.19,Acu-Link.com,2013-02-19 06:34:00,
2013-02-19 00:49:00,55.4,54.8,29.71,SW,225,0.0,-999.0,98,-99.99,,,0.23,Acu-Link.com,2013-02-19 06:49:00,
2013-02-19 01:04:00,55.4,54.8,29.71,SSE,157,0.0,-999.0,98,-99.99,,,0.29,Acu-Link.com,2013-02-19 07:04:00,
2013-02-19 01:20:00,55.0,54.4,29.71,West,270,1.7,-999.0,98,-99.99,,,0.30,Acu-Link.com,2013-02-19 07:20:00,
2013-02-19 01:35:00,54.9,54.3,29.71,NW,315,0.0,-999.0,98,-99.99,,,0.31,Acu-Link.com,2013-02-19 07:35:00,
2013-02-19 01:50:00,54.7,54.1,29.72,WNW,292,1.7,-999.0,98,-99.99,,,0.31,Acu-Link.com,2013-02-19 07:50:00,
2013-02-19 02:05:00,54.7,54.1,29.72,NW,315,2.7,-999.0,98,-99.99,,,0.31,Acu-Link.com,2013-02-19 08:05:00,
2013-02-19 02:20:00,54.9,54.3,29.72,North,0,4.2,-999.0,98,-99.99,,,0.31,Acu-Link.com,2013-02-19 08:20:00,
2013-02-19 02:35:00,55.2,54.6,29.72,NNW,337,5.8,-999.0,98,-99.99,,,0.31,Acu-Link.com,2013-02-19 08:35:00,
2013-02-19 02:50:00,55.2,54.6,29.74,WNW,292,7.8,-999.0,98,-99.99,,,0.31,Acu-Link.com,2013-02-19 08:50:00,
2013-02-19 03:17:00,54.7,54.1,29.75,NNW,337,6.3,-999.0,98,-99.99,,,0.31,Acu-Link.com,2013-02-19 09:17:00,
2013-02-19 03:32:00,54.3,20.2,29.76,NNE,22,4.7,-999.0,26,-99.99,,,0.31,Acu-Link.com,2013-02-19 09:32:00,
2013-02-19 03:48:00,54.0,-44.5,29.76,SW,225,3.2,-999.0,1,-99.99,,,0.31,Acu-Link.com,2013-02-19 09:48:00,
2013-02-19 04:03:00,52.0,-45.7,29.78,NE,45,9.4,-999.0,1,-99.99,,,0.31,Acu-Link.com,2013-02-19 10:03:00,
2013-02-19 04:18:00,50.2,-35.0,29.79,NNE,22,5.3,-999.0,2,-99.99,,,0.31,Acu-Link.com,2013-02-19 10:18:00,
2013-02-19 04:33:00,48.6,-47.8,29.81,West,270,4.7,-999.0,1,-99.99,,,0.31,Acu-Link.com,2013-02-19 10:33:00,
2013-02-19 04:48:00,47.5,-48.5,29.83,WNW,292,2.2,-999.0,1,-99.99,,,0.31,Acu-Link.com,2013-02-19 10:48:00,
2013-02-19 05:04:00,46.8,-48.9,29.84,West,270,7.3,-999.0,1,-99.99,,,0.31,Acu-Link.com,2013-02-19 11:04:00,
2013-02-19 05:20:00,46.0,42.4,29.85,NNE,22,5.3,-999.0,87,-99.99,,,0.31,Acu-Link.com,2013-02-19 11:20:00,
2013-02-19 05:35:00,45.1,-50.0,29.86,NW,315,2.2,-999.0,1,-99.99,,,0.31,Acu-Link.com,2013-02-19 11:35:00,
2013-02-19 05:50:00,44.6,-50.3,29.87,NW,315,2.2,-999.0,1,-99.99,,,0.31,Acu-Link.com,2013-02-19 11:50:00,
2013-02-19 06:05:00,44.1,-50.6,29.87,North,0,5.8,-999.0,1,-99.99,,,0.31,Acu-Link.com,2013-02-19 12:05:00,
2013-02-19 06:21:00,43.7,-50.8,29.89,West,270,2.2,-999.0,1,-99.99,,,0.31,Acu-Link.com,2013-02-19 12:21:00,
2013-02-19 06:36:00,43.5,-50.9,29.89,West,270,4.2,-999.0,1,-99.99,,,0.31,Acu-Link.com,2013-02-19 12:36:00,
2013-02-19 06:51:00,43.7,-50.8,29.89,NNW,337,5.3,-999.0,1,-99.99,,,0.31,Acu-Link.com,2013-02-19 12:51:00,
2013-02-19 07:07:00,43.5,-50.9,29.90,North,0,6.8,-999.0,1,-99.99,,,0.31,Acu-Link.com,2013-02-19 13:07:00,
2013-02-19 07:24:00,44.2,-50.5,29.90,NNE,22,3.7,-999.0,1,-99.99,,,0.31,Acu-Link.com,2013-02-19 13:24:00,
2013-02-19 07:41:00,45.3,24.7,29.92,NNE,22,5.3,-999.0,44,-99.99,,,0.31,Acu-Link.com,2013-02-19 13:41:00,
2013-02-19 07:58:00,45.5,-49.7,29.92,North,0,5.3,-999.0,1,-99.99,,,0.31,Acu-Link.com,2013-02-19 13:58:00,
2013-02-19 08:14:00,45.1,-50.0,29.94,NNW,337,12.5,-999.0,1,-99.99,,,0.31,Acu-Link.com,2013-02-19 14:14:00,
2013-02-19 08:29:00,45.9,-49.5,29.95,NE,45,10.9,-999.0,1,-99.99,,,0.31,Acu-Link.com,2013-02-19 14:29:00,
2013-02-19 08:44:00,46.4,-49.2,29.95,ENE,67,4.7,-999.0,1,-99.99,,,0.31,Acu-Link.com,2013-02-19 14:44:00,
2013-02-19 08:59:00,47.1,-48.7,29.96,NNE,22,4.2,-999.0,1,-99.99,,,0.31,Acu-Link.com,2013-02-19 14:59:00,
2013-02-19 09:14:00,46.9,39.1,29.97,NE,45,6.8,-999.0,74,-99.99,,,0.31,Acu-Link.com,2013-02-19 15:14:00,
2013-02-19 09:30:00,47.8,43.5,29.97,ENE,67,7.3,-999.0,85,-99.99,,,0.31,Acu-Link.com,2013-02-19 15:30:00,
2013-02-19 09:45:00,48.4,-47.9,29.98,NNE,22,5.8,-999.0,1,-99.99,,,0.31,Acu-Link.com,2013-02-19 15:45:00,
2013-02-19 10:00:00,49.3,-47.4,29.98,NNE,22,5.8,-999.0,1,-99.99,,,0.31,Acu-Link.com,2013-02-19 16:00:00,
2013-02-19 10:16:00,50.0,-46.9,29.99,NW,315,8.9,-999.0,1,-99.99,,,0.31,Acu-Link.com,2013-02-19 16:16:00,
2013-02-19 10:31:00,50.2,-46.8,29.99,NNE,22,8.9,-999.0,1,-99.99,,,0.31,Acu-Link.com,2013-02-19 16:31:00,
2013-02-19 10:46:00,50.4,-46.7,29.99,NE,45,9.4,-999.0,1,-99.99,,,0.31,Acu-Link.com,2013-02-19 16:46:00,
2013-02-19 11:02:00,51.8,-45.8,30.00,NE,45,6.8,-999.0,1,-99.99,,,0.31,Acu-Link.com,2013-02-19 17:02:00,
2013-02-19 11:17:00,52.0,-45.7,29.99,NNW,337,6.8,-999.0,1,-99.99,,,0.31,Acu-Link.com,2013-02-19 17:17:00,
2013-02-19 11:32:00,53.8,-44.6,29.99,WNW,292,4.7,-999.0,1,-99.99,,,0.31,Acu-Link.com,2013-02-19 17:32:00,
2013-02-19 11:49:00,53.2,-45.0,29.99,NE,45,5.8,-999.0,1,-99.99,,,0.31,Acu-Link.com,2013-02-19 17:49:00,
2013-02-19 12:04:00,54.0,-44.5,29.99,NNE,22,5.3,-999.0,1,-99.99,,,0.31,Acu-Link.com,2013-02-19 18:04:00,
2013-02-19 12:20:00,55.6,-43.5,29.99,NNE,22,8.3,-999.0,1,-99.99,,,0.31,Acu-Link.com,2013-02-19 18:20:00,
2013-02-19 12:35:00,56.1,-43.2,29.99,NE,45,2.7,-999.0,1,-99.99,,,0.31,Acu-Link.com,2013-02-19 18:35:00,
2013-02-19 12:50:00,57.2,-42.6,29.98,NE,45,4.7,-999.0,1,-99.99,,,0.31,Acu-Link.com,2013-02-19 18:50:00,
2013-02-19 13:05:00,56.8,-42.8,29.98,NNW,337,3.2,-999.0,1,-99.99,,,0.31,Acu-Link.com,2013-02-19 19:05:00,
2013-02-19 13:20:00,57.2,-42.6,29.97,NNW,337,7.8,-999.0,1,-99.99,,,0.31,Acu-Link.com,2013-02-19 19:20:00,
2013-02-19 13:35:00,55.8,-43.4,29.97,NNE,22,5.3,-999.0,1,-99.99,,,0.31,Acu-Link.com,2013-02-19 19:35:00,
2013-02-19 13:50:00,58.3,-41.9,29.97,North,0,4.7,-999.0,1,-99.99,,,0.31,Acu-Link.com,2013-02-19 19:50:00,
2013-02-19 14:05:00,58.5,-41.8,29.98,North,0,8.3,-999.0,1,-99.99,,,0.31,Acu-Link.com,2013-02-19 20:05:00,
2013-02-19 14:20:00,57.9,-42.1,29.98,NNE,22,8.9,-999.0,1,-99.99,,,0.31,Acu-Link.com,2013-02-19 20:20:00,
2013-02-19 14:36:00,57.2,-42.6,29.98,NNW,337,6.8,-999.0,1,-99.99,,,0.31,Acu-Link.com,2013-02-19 20:36:00,
2013-02-19 14:52:00,57.7,-42.3,29.98,North,0,13.0,-999.0,1,-99.99,,,0.31,Acu-Link.com,2013-02-19 20:52:00,
2013-02-19 15:07:00,58.6,-41.7,29.98,NE,45,6.3,-999.0,1,-99.99,,,0.31,Acu-Link.com,2013-02-19 21:07:00,
2013-02-19 15:22:00,59.5,-41.2,29.98,NNE,22,8.3,-999.0,1,-99.99,,,0.31,Acu-Link.com,2013-02-19 21:22:00,
2013-02-19 15:38:00,57.9,-42.1,29.98,West,270,10.9,-999.0,1,-99.99,,,0.31,Acu-Link.com,2013-02-19 21:38:00,
2013-02-19 15:53:00,56.7,-42.9,29.97,WNW,292,6.8,-999.0,1,-99.99,,,0.31,Acu-Link.com,2013-02-19 21:53:00,
2013-02-19 16:08:00,56.8,-42.8,29.97,WNW,292,6.3,-999.0,1,-99.99,,,0.31,Acu-Link.com,2013-02-19 22:08:00,
2013-02-19 16:23:00,57.2,-42.6,29.97,NNE,22,3.2,-999.0,1,-99.99,,,0.31,Acu-Link.com,2013-02-19 22:23:00,
2013-02-19 16:40:00,56.1,-43.2,29.97,NE,45,4.7,-999.0,1,-99.99,,,0.31,Acu-Link.com,2013-02-19 22:40:00,
2013-02-19 16:56:00,55.2,-43.8,29.97,NE,45,5.8,-999.0,1,-99.99,,,0.31,Acu-Link.com,2013-02-19 22:56:00,
2013-02-19 17:11:00,55.0,-43.9,29.96,NNE,22,6.3,-999.0,1,-99.99,,,0.31,Acu-Link.com,2013-02-19 23:11:00,
2013-02-19 17:29:00,54.7,-44.1,29.96,NNW,337,3.7,-999.0,1,-99.99,,,0.31,Acu-Link.com,2013-02-19 23:29:00,
2013-02-19 17:45:00,51.4,-46.1,29.96,NW,315,4.2,-999.0,1,-99.99,,,0.31,Acu-Link.com,2013-02-19 23:45:00,
2013-02-19 18:00:00,49.6,-47.2,29.97,West,270,1.1,-999.0,1,-99.99,,,0.31,Acu-Link.com,2013-02-20 00:00:00,
2013-02-19 18:15:00,47.5,-48.5,29.97,WNW,292,0.0,-999.0,1,-99.99,,,0.31,Acu-Link.com,2013-02-20 00:15:00,
2013-02-19 18:30:00,44.6,-50.3,29.98,NNW,337,0.0,-999.0,1,-99.99,,,0.31,Acu-Link.com,2013-02-20 00:30:00,
2013-02-19 18:45:00,42.6,-51.5,29.98,NNW,337,0.0,-999.0,1,-99.99,,,0.31,Acu-Link.com,2013-02-20 00:45:00,
2013-02-19 19:00:00,41.2,40.1,29.98,NNE,22,0.0,-999.0,96,-99.99,,,0.31,Acu-Link.com,2013-02-20 01:00:00,
2013-02-19 19:16:00,40.5,-52.8,29.98,NNW,337,0.0,-999.0,1,-99.99,,,0.31,Acu-Link.com,2013-02-20 01:16:00,
2013-02-19 19:31:00,39.9,-53.2,29.98,NW,315,0.0,-999.0,1,-99.99,,,0.31,Acu-Link.com,2013-02-20 01:31:00,
2013-02-19 19:48:00,39.6,-53.3,29.98,West,270,0.0,-999.0,1,-99.99,,,0.31,Acu-Link.com,2013-02-20 01:48:00,
2013-02-19 20:03:00,38.5,-54.0,29.99,NW,315,0.0,-999.0,1,-99.99,,,0.31,Acu-Link.com,2013-02-20 02:03:00,
2013-02-19 20:18:00,37.8,-54.5,29.99,NNW,337,0.0,-999.0,1,-99.99,,,0.31,Acu-Link.com,2013-02-20 02:18:00,
2013-02-19 20:35:00,37.0,-55.0,29.99,WNW,292,1.1,-999.0,1,-99.99,,,0.31,Acu-Link.com,2013-02-20 02:35:00,
2013-02-19 20:51:00,36.5,-55.3,30.00,NNW,337,0.0,-999.0,1,-99.99,,,0.31,Acu-Link.com,2013-02-20 02:51:00,
2013-02-19 21:07:00,35.8,-55.7,30.01,NNW,337,0.0,-999.0,1,-99.99,,,0.31,Acu-Link.com,2013-02-20 03:07:00,
2013-02-19 21:22:00,34.9,-56.3,30.01,NE,45,0.0,-999.0,1,-99.99,,,0.31,Acu-Link.com,2013-02-20 03:22:00,
2013-02-19 21:37:00,34.3,-56.6,30.01,West,270,0.0,-999.0,1,-99.99,,,0.31,Acu-Link.com,2013-02-20 03:37:00,
2013-02-19 21:57:00,34.0,-56.8,30.02,ENE,67,0.0,-999.0,1,-99.99,,,0.31,Acu-Link.com,2013-02-20 03:57:00,
2013-02-19 22:27:00,33.1,-57.4,30.01,SSW,202,0.0,-999.0,1,-99.99,,,0.31,Acu-Link.com,2013-02-20 04:27:00,
2013-02-19 22:47:00,32.9,-57.5,29.99,NE,45,2.2,-999.0,1,-99.99,,,0.31,Acu-Link.com,2013-02-20 04:47:00,
2013-02-19 23:03:00,36.5,-55.3,29.99,ENE,67,0.0,-999.0,1,-99.99,,,0.31,Acu-Link.com,2013-02-20 05:03:00,
2013-02-19 23:21:00,37.4,-54.7,29.99,ENE,67,2.2,-999.0,1,-99.99,,,0.31,Acu-Link.com,2013-02-20 05:21:00,
2013-02-19 23:36:00,37.9,-54.4,30.01,WSW,247,0.0,-999.0,1,-99.99,,,0.31,Acu-Link.com,2013-02-20 05:36:00,
2013-02-19 23:51:00,36.3,-55.4,30.01,NNE,22,0.0,-999.0,1,-99.99,,,0.31,Acu-Link.com,2013-02-20 05:51:00,